Los Mochis, Mexico

8:31 PM MDT on September 04, 2015 (GMT -0600)
Valle Del Fuerte International | | Change Station
CLOSE
Current Station
Airport
Location: Los Mochis,
Elevation: 13 ft
Nearby Weather Stations

Elev 13 ft 25.69 °N, 109.08 °W | Updated 51 minutes ago

Scattered Clouds
Scattered Clouds
88 °F
Feels Like 93 °F
N
8
Wind Variable Wind from WNW

Today
High -- | Low -- °F
--% Chance of Precip.
Yesterday
High -- | Low -- °F
Precip. -- in
6:57 AM 7:32 PM
Waning Gibbous, 53% visible
Pressure 29.75 in
Visibility 10.0 miles
Clouds Scattered Clouds 22000 ft
Heat Index 93 °F
Dew Point 70 °F
Humidity 55%
Rainfall 0.00 in
Snow Depth Not available.
UV 0 out of 12
Pollen Not available.
Air Quality Not available.
Flu Activity Not available.
METAR MMLM 050140Z 30007KT 10SM SCT220 31/21 A2975 RMK 8/002
Pressure 29.75 in
Visibility 10.0 miles
Clouds Scattered Clouds 22000 ft
Heat Index 93 °F
Dew Point 70 °F
Humidity 55%
Rainfall 0.00 in
Snow Depth Not available.
UV 0 out of 12
Pollen Not available.
Air Quality Not available.
Flu Activity Not available.
METAR MMLM 050140Z 30007KT 10SM SCT220 31/21 A2975 RMK 8/002

10-Day Weather Forecast

×

Almanac

Astronomy

Sep. 04, 2015 Rise Set
Actual Time
Civil Twilight
Nautical Twilight
Astronomical Twilight
Moon
Length of Visible Light
Length of Day
Tomorrow will be .
, % of the Moon is Illuminated

Today's Extremes

Country Highs Country Lows

Community

WunderPhotos

Upload Photos

1,852,393 photos uploaded!

WunderBlogs® & News

Nearby

Air Quality

  Air Quality AQ Index Pollutant
Not available.

Snow Depth

Station Depth Elevation

Earthquake Activity

City Distance Mag. Time & Date
Minimum magnitude displayed is 2.5.

Coastal Water Temperatures

Place Temperature

Stations

Nearby Weather Stations

Station Location Temp. Windchill Dew Point Humidity Wind Precip. Elev Updated Type